sensor_id;sensor_type;location;lat;lon;timestamp;pressure;altitude;pressure_sealevel;temperature;humidity
11971;BME280;6045;42.682;23.294;2023-02-19T00:00:07;94908.09;;;8.79;56.08
11971;BME280;6045;42.682;23.294;2023-02-19T00:02:34;94907.91;;;8.80;55.82
11971;BME280;6045;42.682;23.294;2023-02-19T00:05:01;94908.38;;;8.71;56.87
11971;BME280;6045;42.682;23.294;2023-02-19T00:07:29;94881.47;;;8.79;56.13
11971;BME280;6045;42.682;23.294;2023-02-19T00:09:56;94893.81;;;8.67;56.71
11971;BME280;6045;42.682;23.294;2023-02-19T00:12:22;94899.13;;;8.67;56.87
11971;BME280;6045;42.682;23.294;2023-02-19T00:14:49;94882.34;;;8.60;57.14
11971;BME280;6045;42.682;23.294;2023-02-19T00:17:16;94900.81;;;8.61;57.44
11971;BME280;6045;42.682;23.294;2023-02-19T00:19:42;94892.00;;;8.61;57.29
11971;BME280;6045;42.682;23.294;2023-02-19T00:22:09;94884.00;;;8.61;57.32
11971;BME280;6045;42.682;23.294;2023-02-19T00:24:37;94878.38;;;8.31;57.87
11971;BME280;6045;42.682;23.294;2023-02-19T00:27:04;94888.63;;;8.14;59.04
11971;BME280;6045;42.682;23.294;2023-02-19T00:29:31;94867.09;;;8.22;59.18
11971;BME280;6045;42.682;23.294;2023-02-19T00:31:58;94856.28;;;8.11;59.39
11971;BME280;6045;42.682;23.294;2023-02-19T00:34:25;94881.63;;;8.20;59.33
11971;BME280;6045;42.682;23.294;2023-02-19T00:36:51;94868.53;;;8.18;59.46
11971;BME280;6045;42.682;23.294;2023-02-19T00:39:18;94872.66;;;8.27;59.09
11971;BME280;6045;42.682;23.294;2023-02-19T00:41:47;94870.19;;;8.19;59.26
11971;BME280;6045;42.682;23.294;2023-02-19T00:44:14;94863.19;;;8.25;59.28
11971;BME280;6045;42.682;23.294;2023-02-19T00:46:42;94852.97;;;8.15;59.58
11971;BME280;6045;42.682;23.294;2023-02-19T00:49:15;94843.19;;;8.09;59.55
11971;BME280;6045;42.682;23.294;2023-02-19T00:51:41;94859.19;;;8.03;60.08
11971;BME280;6045;42.682;23.294;2023-02-19T00:54:09;94838.69;;;8.10;59.70
11971;BME280;6045;42.682;23.294;2023-02-19T00:56:36;94846.41;;;8.24;59.42
11971;BME280;6045;42.682;23.294;2023-02-19T00:59:04;94839.91;;;8.07;59.78
11971;BME280;6045;42.682;23.294;2023-02-19T01:01:31;94839.13;;;8.00;60.31
11971;BME280;6045;42.682;23.294;2023-02-19T01:03:58;94849.75;;;8.00;60.27
11971;BME280;6045;42.682;23.294;2023-02-19T01:06:24;94856.28;;;8.11;60.15
11971;BME280;6045;42.682;23.294;2023-02-19T01:08:54;94850.72;;;8.19;59.94
11971;BME280;6045;42.682;23.294;2023-02-19T01:11:21;94838.44;;;8.31;59.36
11971;BME280;6045;42.682;23.294;2023-02-19T01:13:48;94841.06;;;8.38;59.15
11971;BME280;6045;42.682;23.294;2023-02-19T01:16:18;94836.31;;;8.46;58.93
11971;BME280;6045;42.682;23.294;2023-02-19T01:18:45;94840.63;;;8.47;58.81
11971;BME280;6045;42.682;23.294;2023-02-19T01:21:15;94840.03;;;8.39;59.23
11971;BME280;6045;42.682;23.294;2023-02-19T01:23:42;94839.41;;;8.43;58.97
11971;BME280;6045;42.682;23.294;2023-02-19T01:26:13;94866.03;;;8.50;58.64
11971;BME280;6045;42.682;23.294;2023-02-19T01:28:40;94851.88;;;8.49;58.60
11971;BME280;6045;42.682;23.294;2023-02-19T01:31:11;94850.84;;;8.57;58.25
11971;BME280;6045;42.682;23.294;2023-02-19T01:33:39;94865.41;;;8.48;58.21
11971;BME280;6045;42.682;23.294;2023-02-19T01:36:06;94863.97;;;8.52;58.51
11971;BME280;6045;42.682;23.294;2023-02-19T01:38:33;94868.88;;;8.55;58.08
11971;BME280;6045;42.682;23.294;2023-02-19T01:41:02;94862.09;;;8.59;58.02
11971;BME280;6045;42.682;23.294;2023-02-19T01:43:31;94880.59;;;8.47;57.96
11971;BME280;6045;42.682;23.294;2023-02-19T01:45:58;94881.69;;;8.27;58.70
11971;BME280;6045;42.682;23.294;2023-02-19T01:48:28;94884.13;;;8.28;58.87
11971;BME280;6045;42.682;23.294;2023-02-19T01:51:02;94894.53;;;8.23;59.31
11971;BME280;6045;42.682;23.294;2023-02-19T01:53:33;94889.47;;;8.02;59.50
11971;BME280;6045;42.682;23.294;2023-02-19T01:56:02;94900.09;;;8.08;59.25
11971;BME280;6045;42.682;23.294;2023-02-19T01:58:32;94879.88;;;7.88;59.76
11971;BME280;6045;42.682;23.294;2023-02-19T02:01:02;94897.66;;;7.87;59.73
11971;BME280;6045;42.682;23.294;2023-02-19T02:03:30;94885.78;;;7.90;59.93
11971;BME280;6045;42.682;23.294;2023-02-19T02:06:01;94880.47;;;8.03;59.42
11971;BME280;6045;42.682;23.294;2023-02-19T02:08:30;94884.16;;;7.95;59.56
11971;BME280;6045;42.682;23.294;2023-02-19T02:11:16;94881.09;;;7.85;60.03
11971;BME280;6045;42.682;23.294;2023-02-19T02:13:44;94876.78;;;7.78;60.59
11971;BME280;6045;42.682;23.294;2023-02-19T02:16:19;94876.81;;;7.84;60.41
11971;BME280;6045;42.682;23.294;2023-02-19T02:18:55;94884.16;;;7.95;59.91
11971;BME280;6045;42.682;23.294;2023-02-19T02:21:35;94881.69;;;8.00;59.77
11971;BME280;6045;42.682;23.294;2023-02-19T02:24:24;94879.41;;;8.10;59.20
11971;BME280;6045;42.682;23.294;2023-02-19T02:27:11;94875.94;;;8.16;59.26
11971;BME280;6045;42.682;23.294;2023-02-19T02:30:02;94888.19;;;8.17;58.72
11971;BME280;6045;42.682;23.294;2023-02-19T02:32:38;94889.44;;;8.08;59.23
11971;BME280;6045;42.682;23.294;2023-02-19T02:35:16;94899.09;;;8.09;59.07
11971;BME280;6045;42.682;23.294;2023-02-19T02:37:48;94884.53;;;8.18;58.65
11971;BME280;6045;42.682;23.294;2023-02-19T02:40:16;94908.06;;;8.21;58.75
11971;BME280;6045;42.682;23.294;2023-02-19T02:42:44;94890.50;;;7.94;59.34
11971;BME280;6045;42.682;23.294;2023-02-19T02:45:27;94892.16;;;7.95;59.76
11971;BME280;6045;42.682;23.294;2023-02-19T02:48:06;94896.84;;;7.93;59.97
11971;BME280;6045;42.682;23.294;2023-02-19T02:50:37;94898.91;;;7.98;59.51
11971;BME280;6045;42.682;23.294;2023-02-19T02:53:10;94902.19;;;7.93;59.60
11971;BME280;6045;42.682;23.294;2023-02-19T02:55:57;94896.84;;;7.93;59.90
11971;BME280;6045;42.682;23.294;2023-02-19T02:58:27;94880.44;;;7.96;59.49
11971;BME280;6045;42.682;23.294;2023-02-19T03:00:59;94888.88;;;7.93;59.74
11971;BME280;6045;42.682;23.294;2023-02-19T03:03:46;94893.97;;;8.01;59.68
11971;BME280;6045;42.682;23.294;2023-02-19T03:06:16;94888.44;;;8.09;59.49
11971;BME280;6045;42.682;23.294;2023-02-19T03:08:47;94895.22;;;8.05;59.47
11971;BME280;6045;42.682;23.294;2023-02-19T03:11:17;94896.81;;;8.06;59.51
11971;BME280;6045;42.682;23.294;2023-02-19T03:14:05;94899.28;;;8.01;59.92
11971;BME280;6045;42.682;23.294;2023-02-19T03:16:54;94896.25;;;7.78;60.07
11971;BME280;6045;42.682;23.294;2023-02-19T03:19:42;94886.22;;;7.80;60.38
11971;BME280;6045;42.682;23.294;2023-02-19T03:22:13;94889.31;;;7.77;60.80
11971;BME280;6045;42.682;23.294;2023-02-19T03:24:44;94897.28;;;7.77;60.88
11971;BME280;6045;42.682;23.294;2023-02-19T03:27:45;94909.53;;;7.78;60.79
11971;BME280;6045;42.682;23.294;2023-02-19T03:30:17;94916.91;;;7.83;60.59
11971;BME280;6045;42.682;23.294;2023-02-19T03:32:48;94922.66;;;7.86;60.71
11971;BME280;6045;42.682;23.294;2023-02-19T03:35:20;94928.38;;;7.83;60.43
11971;BME280;6045;42.682;23.294;2023-02-19T03:37:53;94926.75;;;7.89;60.44
11971;BME280;6045;42.682;23.294;2023-02-19T03:40:27;94943.72;;;7.88;60.15
11971;BME280;6045;42.682;23.294;2023-02-19T03:42:59;94938.63;;;7.86;60.24
11971;BME280;6045;42.682;23.294;2023-02-19T03:45:37;94928.38;;;7.90;60.29
11971;BME280;6045;42.682;23.294;2023-02-19T03:48:28;94932.25;;;7.94;60.25
11971;BME280;6045;42.682;23.294;2023-02-19T03:51:03;94929.41;;;7.95;60.01
11971;BME280;6045;42.682;23.294;2023-02-19T03:53:36;94936.53;;;8.01;59.77
11971;BME280;6045;42.682;23.294;2023-02-19T03:56:09;94937.78;;;7.99;59.90
11971;BME280;6045;42.682;23.294;2023-02-19T03:58:44;94945.38;;;7.95;59.83
11971;BME280;6045;42.682;23.294;2023-02-19T04:01:16;94943.09;;;7.92;60.17
11971;BME280;6045;42.682;23.294;2023-02-19T04:03:50;94941.06;;;7.94;59.92
11971;BME280;6045;42.682;23.294;2023-02-19T04:06:25;94956.63;;;7.97;59.90
11971;BME280;6045;42.682;23.294;2023-02-19T04:08:55;94949.84;;;8.01;59.35
11971;BME280;6045;42.682;23.294;2023-02-19T04:11:24;94949.03;;;8.07;59.09
11971;BME280;6045;42.682;23.294;2023-02-19T04:13:57;94950.47;;;8.10;58.83
11971;BME280;6045;42.682;23.294;2023-02-19T04:16:27;94946.56;;;8.06;58.67
11971;BME280;6045;42.682;23.294;2023-02-19T04:18:58;94953.75;;;7.99;59.05
11971;BME280;6045;42.682;23.294;2023-02-19T04:21:29;94948.84;;;8.02;59.07
11971;BME280;6045;42.682;23.294;2023-02-19T04:23:58;94959.09;;;8.05;58.56
11971;BME280;6045;42.682;23.294;2023-02-19T04:26:31;94964.81;;;7.96;59.19
11971;BME280;6045;42.682;23.294;2023-02-19T04:28:58;94954.19;;;7.96;58.81
11971;BME280;6045;42.682;23.294;2023-02-19T04:31:26;94957.03;;;7.94;58.75
11971;BME280;6045;42.682;23.294;2023-02-19T04:33:56;94953.56;;;8.00;59.45
11971;BME280;6045;42.682;23.294;2023-02-19T04:36:23;94967.88;;;7.99;58.72
11971;BME280;6045;42.682;23.294;2023-02-19T04:38:50;94965.63;;;7.96;58.96
11971;BME280;6045;42.682;23.294;2023-02-19T04:41:17;94961.72;;;7.92;58.98
11971;BME280;6045;42.682;23.294;2023-02-19T04:43:43;94962.34;;;7.88;59.49
11971;BME280;6045;42.682;23.294;2023-02-19T04:46:10;94962.56;;;7.86;59.39
11971;BME280;6045;42.682;23.294;2023-02-19T04:48:37;94968.91;;;7.85;59.32
11971;BME280;6045;42.682;23.294;2023-02-19T04:51:06;94969.72;;;7.79;59.76
11971;BME280;6045;42.682;23.294;2023-02-19T04:53:33;94977.28;;;7.76;59.52
11971;BME280;6045;42.682;23.294;2023-02-19T04:56:05;94974.22;;;7.72;60.05
11971;BME280;6045;42.682;23.294;2023-02-19T04:58:31;94976.06;;;7.72;59.73
11971;BME280;6045;42.682;23.294;2023-02-19T05:00:58;94964.19;;;7.68;59.69
11971;BME280;6045;42.682;23.294;2023-02-19T05:03:25;94976.88;;;7.72;59.65
11971;BME280;6045;42.682;23.294;2023-02-19T05:05:52;94979.53;;;7.72;59.63
11971;BME280;6045;42.682;23.294;2023-02-19T05:08:20;94979.53;;;7.72;59.66
11971;BME280;6045;42.682;23.294;2023-02-19T05:10:46;94969.50;;;7.74;59.50
11971;BME280;6045;42.682;23.294;2023-02-19T05:13:13;94965.63;;;7.83;58.98
11971;BME280;6045;42.682;23.294;2023-02-19T05:15:40;94982.00;;;7.87;58.69
11971;BME280;6045;42.682;23.294;2023-02-19T05:18:07;94978.09;;;7.89;58.79
11971;BME280;6045;42.682;23.294;2023-02-19T05:20:33;94980.59;;;7.84;58.77
11971;BME280;6045;42.682;23.294;2023-02-19T05:23:00;94979.53;;;7.92;58.58
11971;BME280;6045;42.682;23.294;2023-02-19T05:25:28;94976.25;;;7.96;58.77
11971;BME280;6045;42.682;23.294;2023-02-19T05:27:55;94979.97;;;8.02;58.65
11971;BME280;6045;42.682;23.294;2023-02-19T05:30:41;94978.94;;;8.09;58.65
11971;BME280;6045;42.682;23.294;2023-02-19T05:33:08;94976.84;;;8.24;58.22
11971;BME280;6045;42.682;23.294;2023-02-19T05:35:40;94988.16;;;8.40;57.67
11971;BME280;6045;42.682;23.294;2023-02-19T05:38:07;94994.69;;;8.57;57.65
11971;BME280;6045;42.682;23.294;2023-02-19T05:40:35;94991.34;;;8.74;57.01
11971;BME280;6045;42.682;23.294;2023-02-19T05:43:02;94991.50;;;8.99;56.31
11971;BME280;6045;42.682;23.294;2023-02-19T05:45:29;94991.97;;;9.27;55.80
11971;BME280;6045;42.682;23.294;2023-02-19T05:47:56;94984.03;;;9.52;55.72
11971;BME280;6045;42.682;23.294;2023-02-19T05:50:23;94987.78;;;9.76;54.26
11971;BME280;6045;42.682;23.294;2023-02-19T05:52:50;94980.84;;;9.99;53.85
11971;BME280;6045;42.682;23.294;2023-02-19T05:55:17;94989.53;;;10.44;53.07
11971;BME280;6045;42.682;23.294;2023-02-19T05:57:47;94996.94;;;11.03;51.68
11971;BME280;6045;42.682;23.294;2023-02-19T06:00:16;94996.53;;;11.54;49.95
11971;BME280;6045;42.682;23.294;2023-02-19T06:02:43;94999.69;;;12.10;47.88
11971;BME280;6045;42.682;23.294;2023-02-19T06:05:10;95010.47;;;12.68;47.10
11971;BME280;6045;42.682;23.294;2023-02-19T06:07:37;95010.22;;;13.16;45.16
11971;BME280;6045;42.682;23.294;2023-02-19T06:10:06;95018.47;;;13.78;44.06
11971;BME280;6045;42.682;23.294;2023-02-19T06:12:33;95026.44;;;14.01;43.52
11971;BME280;6045;42.682;23.294;2023-02-19T06:15:01;95027.94;;;14.08;43.20
11971;BME280;6045;42.682;23.294;2023-02-19T06:17:29;95029.97;;;13.90;43.63
11971;BME280;6045;42.682;23.294;2023-02-19T06:19:56;95030.47;;;13.87;43.79
11971;BME280;6045;42.682;23.294;2023-02-19T06:22:23;95030.94;;;13.84;43.97
11971;BME280;6045;42.682;23.294;2023-02-19T06:24:50;95032.59;;;13.85;43.42
11971;BME280;6045;42.682;23.294;2023-02-19T06:27:17;95041.78;;;13.89;43.97
11971;BME280;6045;42.682;23.294;2023-02-19T06:29:44;95029.50;;;13.93;43.82
11971;BME280;6045;42.682;23.294;2023-02-19T06:32:12;95033.72;;;13.89;44.49
11971;BME280;6045;42.682;23.294;2023-02-19T06:34:38;95027.69;;;13.82;44.21
11971;BME280;6045;42.682;23.294;2023-02-19T06:37:05;95039.63;;;13.74;44.18
11971;BME280;6045;42.682;23.294;2023-02-19T06:39:32;95036.69;;;14.04;44.38
11971;BME280;6045;42.682;23.294;2023-02-19T06:41:59;95030.19;;;14.61;43.70
11971;BME280;6045;42.682;23.294;2023-02-19T06:44:25;95021.56;;;15.31;41.88
11971;BME280;6045;42.682;23.294;2023-02-19T06:46:53;95022.75;;;16.05;40.20
11971;BME280;6045;42.682;23.294;2023-02-19T06:49:22;95033.19;;;16.76;38.85
11971;BME280;6045;42.682;23.294;2023-02-19T06:51:48;95027.88;;;17.28;37.20
11971;BME280;6045;42.682;23.294;2023-02-19T06:54:15;95034.44;;;17.89;37.04
11971;BME280;6045;42.682;23.294;2023-02-19T06:56:42;95032.91;;;18.28;34.75
11971;BME280;6045;42.682;23.294;2023-02-19T06:59:11;95033.78;;;18.44;34.60
11971;BME280;6045;42.682;23.294;2023-02-19T07:01:38;95043.22;;;18.31;34.72
11971;BME280;6045;42.682;23.294;2023-02-19T07:04:06;95047.00;;;18.30;34.56
11971;BME280;6045;42.682;23.294;2023-02-19T07:06:34;95047.88;;;18.46;34.44
11971;BME280;6045;42.682;23.294;2023-02-19T07:09:02;95044.38;;;18.66;34.16
11971;BME280;6045;42.682;23.294;2023-02-19T07:11:32;95043.53;;;19.56;50.47
11971;BME280;6045;42.682;23.294;2023-02-19T07:14:01;95047.09;;;20.20;46.83
11971;BME280;6045;42.682;23.294;2023-02-19T07:16:28;95043.53;;;20.79;39.75
11971;BME280;6045;42.682;23.294;2023-02-19T07:18:56;95046.00;;;21.43;35.92
11971;BME280;6045;42.682;23.294;2023-02-19T07:21:23;95036.13;;;21.75;36.85
11971;BME280;6045;42.682;23.294;2023-02-19T07:23:51;95035.91;;;21.96;33.99
11971;BME280;6045;42.682;23.294;2023-02-19T07:26:19;95026.28;;;22.45;38.36
11971;BME280;6045;42.682;23.294;2023-02-19T07:28:47;95028.38;;;22.91;41.32
11971;BME280;6045;42.682;23.294;2023-02-19T07:31:16;95026.09;;;23.30;30.32
11971;BME280;6045;42.682;23.294;2023-02-19T07:33:44;95015.38;;;23.66;29.17
11971;BME280;6045;42.682;23.294;2023-02-19T07:36:11;95012.47;;;23.76;28.13
11971;BME280;6045;42.682;23.294;2023-02-19T07:38:38;95023.16;;;23.86;26.73
11971;BME280;6045;42.682;23.294;2023-02-19T07:41:06;95021.38;;;23.95;26.62
11971;BME280;6045;42.682;23.294;2023-02-19T07:43:35;95012.69;;;24.07;26.43
11971;BME280;6045;42.682;23.294;2023-02-19T07:46:02;95020.97;;;24.15;26.32
11971;BME280;6045;42.682;23.294;2023-02-19T07:48:29;95016.59;;;24.41;25.65
11971;BME280;6045;42.682;23.294;2023-02-19T07:50:57;95016.00;;;24.31;25.54
11971;BME280;6045;42.682;23.294;2023-02-19T07:53:25;95005.28;;;24.34;25.60
11971;BME280;6045;42.682;23.294;2023-02-19T07:55:53;95013.56;;;24.29;25.43
11971;BME280;6045;42.682;23.294;2023-02-19T07:58:21;95008.81;;;24.35;25.31
11971;BME280;6045;42.682;23.294;2023-02-19T08:00:47;95006.38;;;23.79;26.41
11971;BME280;6045;42.682;23.294;2023-02-19T08:03:14;95004.63;;;23.56;27.08
11971;BME280;6045;42.682;23.294;2023-02-19T08:05:42;95016.19;;;23.94;26.70
11971;BME280;6045;42.682;23.294;2023-02-19T08:08:11;95005.09;;;24.17;26.16
11971;BME280;6045;42.682;23.294;2023-02-19T08:10:38;95005.69;;;24.14;25.92
11971;BME280;6045;42.682;23.294;2023-02-19T08:13:24;95013.56;;;23.89;26.49
11971;BME280;6045;42.682;23.294;2023-02-19T08:15:53;95005.19;;;24.12;26.82
11971;BME280;6045;42.682;23.294;2023-02-19T08:18:21;95007.47;;;24.46;25.94
11971;BME280;6045;42.682;23.294;2023-02-19T08:20:48;95010.66;;;24.12;25.41
11971;BME280;6045;42.682;23.294;2023-02-19T08:23:15;95006.19;;;23.62;26.68
11971;BME280;6045;42.682;23.294;2023-02-19T08:25:42;94999.69;;;23.58;26.46
11971;BME280;6045;42.682;23.294;2023-02-19T08:28:10;95013.19;;;22.85;26.70
11971;BME280;6045;42.682;23.294;2023-02-19T08:30:40;95011.75;;;22.13;27.58
11971;BME280;6045;42.682;23.294;2023-02-19T08:33:09;95006.88;;;22.10;27.69
11971;BME280;6045;42.682;23.294;2023-02-19T08:35:37;95010.13;;;22.12;27.77
11971;BME280;6045;42.682;23.294;2023-02-19T08:38:06;95015.31;;;22.13;28.62
11971;BME280;6045;42.682;23.294;2023-02-19T08:40:33;95004.44;;;22.51;27.74
11971;BME280;6045;42.682;23.294;2023-02-19T08:43:05;95002.28;;;22.85;27.23
11971;BME280;6045;42.682;23.294;2023-02-19T08:45:32;95000.31;;;22.90;27.17
11971;BME280;6045;42.682;23.294;2023-02-19T08:48:00;94990.56;;;23.35;26.80
11971;BME280;6045;42.682;23.294;2023-02-19T08:50:28;94991.56;;;23.07;26.87
11971;BME280;6045;42.682;23.294;2023-02-19T08:52:54;94983.38;;;23.39;27.44
11971;BME280;6045;42.682;23.294;2023-02-19T08:55:21;94986.56;;;23.28;25.87
11971;BME280;6045;42.682;23.294;2023-02-19T08:57:48;94991.13;;;22.68;27.68
11971;BME280;6045;42.682;23.294;2023-02-19T09:00:15;94984.84;;;22.30;28.42
11971;BME280;6045;42.682;23.294;2023-02-19T09:02:42;94982.06;;;22.72;28.45
11971;BME280;6045;42.682;23.294;2023-02-19T09:05:11;94984.53;;;22.87;28.47
11971;BME280;6045;42.682;23.294;2023-02-19T09:07:37;94980.03;;;22.78;27.39
11971;BME280;6045;42.682;23.294;2023-02-19T09:10:05;94978.41;;;22.95;27.67
11971;BME280;6045;42.682;23.294;2023-02-19T09:12:32;94966.72;;;22.39;28.14
11971;BME280;6045;42.682;23.294;2023-02-19T09:14:58;94968.72;;;21.20;29.45
11971;BME280;6045;42.682;23.294;2023-02-19T09:17:26;94964.72;;;21.36;29.98
11971;BME280;6045;42.682;23.294;2023-02-19T09:22:39;94954.88;;;21.93;29.42
11971;BME280;6045;42.682;23.294;2023-02-19T09:25:06;94957.38;;;22.08;29.24
11971;BME280;6045;42.682;23.294;2023-02-19T09:27:33;94968.94;;;22.37;29.32
11971;BME280;6045;42.682;23.294;2023-02-19T09:30:00;94949.28;;;22.77;29.15
11971;BME280;6045;42.682;23.294;2023-02-19T09:32:29;94949.34;;;23.04;29.31
11971;BME280;6045;42.682;23.294;2023-02-19T09:34:56;94949.31;;;23.37;28.44
11971;BME280;6045;42.682;23.294;2023-02-19T09:37:24;94950.16;;;23.05;29.27
11971;BME280;6045;42.682;23.294;2023-02-19T09:39:53;94948.19;;;23.24;27.99
11971;BME280;6045;42.682;23.294;2023-02-19T09:42:21;94943.88;;;23.37;28.16
11971;BME280;6045;42.682;23.294;2023-02-19T09:44:51;94949.88;;;23.66;27.87
11971;BME280;6045;42.682;23.294;2023-02-19T09:47:22;94944.31;;;23.57;28.45
11971;BME280;6045;42.682;23.294;2023-02-19T09:49:50;94947.44;;;23.64;27.57
11971;BME280;6045;42.682;23.294;2023-02-19T09:52:24;94944.31;;;23.71;28.19
11971;BME280;6045;42.682;23.294;2023-02-19T09:54:58;94942.06;;;23.87;27.20
11971;BME280;6045;42.682;23.294;2023-02-19T09:57:29;94926.78;;;24.13;26.93
11971;BME280;6045;42.682;23.294;2023-02-19T10:00:01;94916.78;;;24.66;26.50
11971;BME280;6045;42.682;23.294;2023-02-19T10:02:29;94904.69;;;25.03;25.11
11971;BME280;6045;42.682;23.294;2023-02-19T10:04:57;94906.28;;;25.04;25.27
11971;BME280;6045;42.682;23.294;2023-02-19T10:07:25;94902.22;;;25.24;24.44
11971;BME280;6045;42.682;23.294;2023-02-19T10:09:58;94895.44;;;25.21;24.32
11971;BME280;6045;42.682;23.294;2023-02-19T10:12:29;94889.88;;;25.35;24.60
11971;BME280;6045;42.682;23.294;2023-02-19T10:15:00;94887.31;;;25.38;24.51
11971;BME280;6045;42.682;23.294;2023-02-19T10:17:31;94880.09;;;25.11;24.90
11971;BME280;6045;42.682;23.294;2023-02-19T10:20:00;94874.44;;;25.87;24.69
11971;BME280;6045;42.682;23.294;2023-02-19T10:22:29;94871.31;;;26.36;23.30
11971;BME280;6045;42.682;23.294;2023-02-19T10:24:58;94865.19;;;26.39;23.63
11971;BME280;6045;42.682;23.294;2023-02-19T10:27:26;94865.09;;;25.88;23.94
11971;BME280;6045;42.682;23.294;2023-02-19T10:29:54;94864.97;;;25.93;23.53
11971;BME280;6045;42.682;23.294;2023-02-19T10:32:23;94849.16;;;25.90;23.91
11971;BME280;6045;42.682;23.294;2023-02-19T10:35:09;94854.09;;;25.70;24.01
11971;BME280;6045;42.682;23.294;2023-02-19T10:37:41;94846.63;;;25.45;23.72
11971;BME280;6045;42.682;23.294;2023-02-19T10:40:17;94838.69;;;25.83;24.10
11971;BME280;6045;42.682;23.294;2023-02-19T10:42:46;94821.94;;;26.70;23.08
11971;BME280;6045;42.682;23.294;2023-02-19T10:45:17;94818.97;;;26.92;22.70
11971;BME280;6045;42.682;23.294;2023-02-19T10:47:46;94805.50;;;27.17;22.38
11971;BME280;6045;42.682;23.294;2023-02-19T10:50:20;94804.03;;;27.19;22.28
11971;BME280;6045;42.682;23.294;2023-02-19T10:52:51;94798.47;;;27.36;21.81
11971;BME280;6045;42.682;23.294;2023-02-19T10:55:31;94795.56;;;27.03;22.48
11971;BME280;6045;42.682;23.294;2023-02-19T10:58:20;94790.41;;;26.93;22.57
11971;BME280;6045;42.682;23.294;2023-02-19T11:03:33;94783.53;;;26.79;22.70
11971;BME280;6045;42.682;23.294;2023-02-19T11:06:02;94777.44;;;26.47;22.44
11971;BME280;6045;42.682;23.294;2023-02-19T11:08:35;94774.47;;;26.78;22.58
11971;BME280;6045;42.682;23.294;2023-02-19T11:11:21;94758.41;;;27.06;22.58
11971;BME280;6045;42.682;23.294;2023-02-19T11:13:48;94763.50;;;26.78;22.33
11971;BME280;6045;42.682;23.294;2023-02-19T11:16:15;94758.13;;;26.99;22.54
11971;BME280;6045;42.682;23.294;2023-02-19T11:18:41;94751.41;;;26.79;21.96
11971;BME280;6045;42.682;23.294;2023-02-19T11:21:24;94739.16;;;27.14;22.06
11971;BME280;6045;42.682;23.294;2023-02-19T11:23:54;94739.72;;;27.29;22.08
11971;BME280;6045;42.682;23.294;2023-02-19T11:26:24;94731.16;;;27.59;21.61
11971;BME280;6045;42.682;23.294;2023-02-19T11:28:54;94730.47;;;27.42;21.09
11971;BME280;6045;42.682;23.294;2023-02-19T11:31:24;94726.59;;;27.63;21.28
11971;BME280;6045;42.682;23.294;2023-02-19T11:33:56;94718.78;;;26.86;21.45
11971;BME280;6045;42.682;23.294;2023-02-19T11:36:26;94719.13;;;26.13;22.23
11971;BME280;6045;42.682;23.294;2023-02-19T11:38:54;94722.50;;;25.50;23.14
11971;BME280;6045;42.682;23.294;2023-02-19T11:41:35;94720.34;;;25.38;23.59
11971;BME280;6045;42.682;23.294;2023-02-19T11:44:18;94711.78;;;25.23;25.73
11971;BME280;6045;42.682;23.294;2023-02-19T11:46:58;94709.44;;;26.07;25.04
11971;BME280;6045;42.682;23.294;2023-02-19T11:49:39;94700.75;;;25.53;23.38
11971;BME280;6045;42.682;23.294;2023-02-19T11:52:20;94700.16;;;25.08;24.94
11971;BME280;6045;42.682;23.294;2023-02-19T11:54:53;94685.41;;;25.27;24.20
11971;BME280;6045;42.682;23.294;2023-02-19T11:57:43;94692.38;;;25.58;25.79
11971;BME280;6045;42.682;23.294;2023-02-19T12:00:19;94678.59;;;26.44;23.26
11971;BME280;6045;42.682;23.294;2023-02-19T12:03:08;94684.16;;;27.32;25.61
11971;BME280;6045;42.682;23.294;2023-02-19T12:05:47;94669.19;;;26.54;22.87
11971;BME280;6045;42.682;23.294;2023-02-19T12:08:27;94669.72;;;27.43;24.87
11971;BME280;6045;42.682;23.294;2023-02-19T12:11:19;94670.66;;;27.89;21.44
11971;BME280;6045;42.682;23.294;2023-02-19T12:14:02;94658.69;;;28.05;21.00
11971;BME280;6045;42.682;23.294;2023-02-19T12:16:37;94655.75;;;27.28;22.16
11971;BME280;6045;42.682;23.294;2023-02-19T12:19:27;94651.94;;;26.53;22.17
11971;BME280;6045;42.682;23.294;2023-02-19T12:22:12;94653.06;;;25.80;22.46
11971;BME280;6045;42.682;23.294;2023-02-19T12:25:08;94636.38;;;24.34;23.24
11971;BME280;6045;42.682;23.294;2023-02-19T12:27:48;94635.84;;;24.72;23.60
11971;BME280;6045;42.682;23.294;2023-02-19T12:30:35;94627.63;;;25.71;25.50
11971;BME280;6045;42.682;23.294;2023-02-19T12:36:17;94618.00;;;25.48;23.17
11971;BME280;6045;42.682;23.294;2023-02-19T12:38:53;94604.59;;;25.63;22.77
11971;BME280;6045;42.682;23.294;2023-02-19T12:41:33;94601.47;;;25.99;21.76
11971;BME280;6045;42.682;23.294;2023-02-19T12:44:08;94603.00;;;25.54;22.27
11971;BME280;6045;42.682;23.294;2023-02-19T12:46:40;94596.16;;;25.94;22.73
11971;BME280;6045;42.682;23.294;2023-02-19T12:49:11;94589.81;;;26.57;22.44
11971;BME280;6045;42.682;23.294;2023-02-19T12:51:42;94579.28;;;27.18;21.00
11971;BME280;6045;42.682;23.294;2023-02-19T12:54:15;94579.50;;;26.92;21.67
11971;BME280;6045;42.682;23.294;2023-02-19T12:56:47;94573.81;;;26.30;22.13
11971;BME280;6045;42.682;23.294;2023-02-19T12:59:21;94563.00;;;26.33;22.16
11971;BME280;6045;42.682;23.294;2023-02-19T13:01:55;94574.75;;;26.42;22.12
11971;BME280;6045;42.682;23.294;2023-02-19T13:04:29;94558.88;;;26.19;21.29
11971;BME280;6045;42.682;23.294;2023-02-19T13:07:00;94552.59;;;26.47;21.81
11971;BME280;6045;42.682;23.294;2023-02-19T13:09:33;94556.56;;;26.88;22.28
11971;BME280;6045;42.682;23.294;2023-02-19T13:12:04;94537.56;;;27.77;21.25
11971;BME280;6045;42.682;23.294;2023-02-19T13:14:35;94561.75;;;26.89;21.16
11971;BME280;6045;42.682;23.294;2023-02-19T13:17:37;94543.41;;;26.81;23.19
11971;BME280;6045;42.682;23.294;2023-02-19T13:20:23;94545.00;;;26.82;23.25
11971;BME280;6045;42.682;23.294;2023-02-19T13:22:59;94527.41;;;26.54;20.96
11971;BME280;6045;42.682;23.294;2023-02-19T13:25:57;94526.91;;;25.85;22.72
11971;BME280;6045;42.682;23.294;2023-02-19T13:28:44;94521.84;;;26.42;21.46
11971;BME280;6045;42.682;23.294;2023-02-19T13:31:28;94518.34;;;26.33;23.33
11971;BME280;6045;42.682;23.294;2023-02-19T13:34:13;94509.13;;;26.37;21.84